sensor_id;sensor_type;location;lat;lon;timestamp;P1;durP1;ratioP1;P2;durP2;ratioP2
7767;SDS011;3928;42.626;23.382;2023-04-01T00:00:59;15.15;;;7.15;;
7767;SDS011;3928;42.626;23.382;2023-04-01T00:03:27;12.87;;;7.60;;
7767;SDS011;3928;42.626;23.382;2023-04-01T00:05:54;17.97;;;8.03;;
7767;SDS011;3928;42.626;23.382;2023-04-01T00:08:25;14.40;;;7.47;;
7767;SDS011;3928;42.626;23.382;2023-04-01T00:10:52;15.90;;;7.85;;
7767;SDS011;3928;42.626;23.382;2023-04-01T00:13:20;13.90;;;7.90;;
7767;SDS011;3928;42.626;23.382;2023-04-01T00:15:47;16.13;;;8.55;;
7767;SDS011;3928;42.626;23.382;2023-04-01T00:18:15;12.40;;;7.47;;
7767;SDS011;3928;42.626;23.382;2023-04-01T00:20:43;11.80;;;6.87;;
7767;SDS011;3928;42.626;23.382;2023-04-01T00:23:11;13.93;;;6.87;;
7767;SDS011;3928;42.626;23.382;2023-04-01T00:25:39;11.33;;;6.67;;
7767;SDS011;3928;42.626;23.382;2023-04-01T00:28:06;12.37;;;7.40;;
7767;SDS011;3928;42.626;23.382;2023-04-01T00:30:33;11.47;;;6.13;;
7767;SDS011;3928;42.626;23.382;2023-04-01T00:33:01;9.37;;;6.40;;
7767;SDS011;3928;42.626;23.382;2023-04-01T00:35:28;9.77;;;5.97;;
7767;SDS011;3928;42.626;23.382;2023-04-01T00:37:55;12.03;;;6.70;;
7767;SDS011;3928;42.626;23.382;2023-04-01T00:40:24;12.57;;;6.43;;
7767;SDS011;3928;42.626;23.382;2023-04-01T00:42:54;10.67;;;5.90;;
7767;SDS011;3928;42.626;23.382;2023-04-01T00:45:23;13.83;;;6.73;;
7767;SDS011;3928;42.626;23.382;2023-04-01T00:47:56;13.67;;;7.30;;
7767;SDS011;3928;42.626;23.382;2023-04-01T00:50:28;12.53;;;7.03;;
7767;SDS011;3928;42.626;23.382;2023-04-01T00:52:57;15.00;;;7.27;;
7767;SDS011;3928;42.626;23.382;2023-04-01T00:55:25;9.13;;;6.43;;
7767;SDS011;3928;42.626;23.382;2023-04-01T00:57:56;18.67;;;6.33;;
7767;SDS011;3928;42.626;23.382;2023-04-01T01:00:25;9.00;;;5.90;;
7767;SDS011;3928;42.626;23.382;2023-04-01T01:02:52;14.03;;;6.10;;
7767;SDS011;3928;42.626;23.382;2023-04-01T01:05:20;15.27;;;6.47;;
7767;SDS011;3928;42.626;23.382;2023-04-01T01:07:56;10.83;;;6.20;;
7767;SDS011;3928;42.626;23.382;2023-04-01T01:10:31;9.93;;;5.60;;
7767;SDS011;3928;42.626;23.382;2023-04-01T01:13:03;11.93;;;5.87;;
7767;SDS011;3928;42.626;23.382;2023-04-01T01:15:37;9.73;;;5.40;;
7767;SDS011;3928;42.626;23.382;2023-04-01T01:18:12;12.20;;;6.00;;
7767;SDS011;3928;42.626;23.382;2023-04-01T01:20:52;11.17;;;5.13;;
7767;SDS011;3928;42.626;23.382;2023-04-01T01:23:36;9.50;;;4.70;;
7767;SDS011;3928;42.626;23.382;2023-04-01T01:26:27;7.33;;;4.37;;
7767;SDS011;3928;42.626;23.382;2023-04-01T01:29:15;11.67;;;4.90;;
7767;SDS011;3928;42.626;23.382;2023-04-01T01:32:09;9.63;;;4.70;;
7767;SDS011;3928;42.626;23.382;2023-04-01T01:34:46;9.83;;;5.30;;
7767;SDS011;3928;42.626;23.382;2023-04-01T01:37:20;11.43;;;5.47;;
7767;SDS011;3928;42.626;23.382;2023-04-01T01:39:51;11.67;;;4.20;;
7767;SDS011;3928;42.626;23.382;2023-04-01T01:42:20;7.97;;;3.83;;
7767;SDS011;3928;42.626;23.382;2023-04-01T01:44:50;12.20;;;4.67;;
7767;SDS011;3928;42.626;23.382;2023-04-01T01:47:19;5.80;;;3.80;;
7767;SDS011;3928;42.626;23.382;2023-04-01T01:49:49;13.37;;;4.70;;
7767;SDS011;3928;42.626;23.382;2023-04-01T01:52:17;10.43;;;4.47;;
7767;SDS011;3928;42.626;23.382;2023-04-01T01:54:49;9.07;;;4.57;;
7767;SDS011;3928;42.626;23.382;2023-04-01T01:57:16;12.50;;;4.50;;
7767;SDS011;3928;42.626;23.382;2023-04-01T01:59:45;9.90;;;4.07;;
7767;SDS011;3928;42.626;23.382;2023-04-01T02:02:14;8.60;;;4.03;;
7767;SDS011;3928;42.626;23.382;2023-04-01T02:04:43;9.87;;;4.33;;
7767;SDS011;3928;42.626;23.382;2023-04-01T02:07:13;7.87;;;4.03;;
7767;SDS011;3928;42.626;23.382;2023-04-01T02:09:44;10.37;;;3.97;;
7767;SDS011;3928;42.626;23.382;2023-04-01T02:12:13;8.10;;;4.20;;
7767;SDS011;3928;42.626;23.382;2023-04-01T02:14:43;8.33;;;4.00;;
7767;SDS011;3928;42.626;23.382;2023-04-01T02:17:14;10.03;;;4.10;;
7767;SDS011;3928;42.626;23.382;2023-04-01T02:19:43;7.53;;;4.23;;
7767;SDS011;3928;42.626;23.382;2023-04-01T02:22:16;8.47;;;3.93;;
7767;SDS011;3928;42.626;23.382;2023-04-01T02:24:46;8.30;;;3.97;;
7767;SDS011;3928;42.626;23.382;2023-04-01T02:27:16;6.00;;;3.85;;
7767;SDS011;3928;42.626;23.382;2023-04-01T02:29:43;7.03;;;3.93;;
7767;SDS011;3928;42.626;23.382;2023-04-01T02:32:10;11.50;;;4.10;;
7767;SDS011;3928;42.626;23.382;2023-04-01T02:34:39;10.17;;;3.90;;
7767;SDS011;3928;42.626;23.382;2023-04-01T02:37:06;6.82;;;3.92;;
7767;SDS011;3928;42.626;23.382;2023-04-01T02:39:33;6.77;;;3.93;;
7767;SDS011;3928;42.626;23.382;2023-04-01T02:42:00;11.63;;;4.00;;
7767;SDS011;3928;42.626;23.382;2023-04-01T02:44:28;5.83;;;3.90;;
7767;SDS011;3928;42.626;23.382;2023-04-01T02:46:55;10.33;;;4.07;;
7767;SDS011;3928;42.626;23.382;2023-04-01T02:49:22;10.77;;;4.00;;
7767;SDS011;3928;42.626;23.382;2023-04-01T02:51:48;6.93;;;3.50;;
7767;SDS011;3928;42.626;23.382;2023-04-01T02:54:17;7.55;;;3.95;;
7767;SDS011;3928;42.626;23.382;2023-04-01T02:56:44;12.70;;;4.55;;
7767;SDS011;3928;42.626;23.382;2023-04-01T02:59:11;10.67;;;4.83;;
7767;SDS011;3928;42.626;23.382;2023-04-01T03:01:39;12.33;;;3.97;;
7767;SDS011;3928;42.626;23.382;2023-04-01T03:04:06;9.60;;;3.97;;
7767;SDS011;3928;42.626;23.382;2023-04-01T03:06:33;9.77;;;3.97;;
7767;SDS011;3928;42.626;23.382;2023-04-01T03:09:00;9.87;;;4.13;;
7767;SDS011;3928;42.626;23.382;2023-04-01T03:11:27;9.57;;;3.90;;
7767;SDS011;3928;42.626;23.382;2023-04-01T03:13:54;7.43;;;4.00;;
7767;SDS011;3928;42.626;23.382;2023-04-01T03:16:21;6.40;;;3.77;;
7767;SDS011;3928;42.626;23.382;2023-04-01T03:18:49;7.70;;;3.90;;
7767;SDS011;3928;42.626;23.382;2023-04-01T03:21:18;5.23;;;3.43;;
7767;SDS011;3928;42.626;23.382;2023-04-01T03:23:46;13.27;;;6.20;;
7767;SDS011;3928;42.626;23.382;2023-04-01T03:26:13;7.50;;;3.97;;
7767;SDS011;3928;42.626;23.382;2023-04-01T03:28:40;9.47;;;3.97;;
7767;SDS011;3928;42.626;23.382;2023-04-01T03:31:07;5.65;;;3.25;;
7767;SDS011;3928;42.626;23.382;2023-04-01T03:33:34;4.03;;;2.03;;
7767;SDS011;3928;42.626;23.382;2023-04-01T03:36:02;3.97;;;2.13;;
7767;SDS011;3928;42.626;23.382;2023-04-01T03:38:31;9.67;;;2.60;;
7767;SDS011;3928;42.626;23.382;2023-04-01T03:40:58;5.93;;;2.78;;
7767;SDS011;3928;42.626;23.382;2023-04-01T03:43:25;8.63;;;3.63;;
7767;SDS011;3928;42.626;23.382;2023-04-01T03:45:52;6.82;;;4.13;;
7767;SDS011;3928;42.626;23.382;2023-04-01T03:48:21;8.43;;;3.85;;
7767;SDS011;3928;42.626;23.382;2023-04-01T03:50:48;13.93;;;6.50;;
7767;SDS011;3928;42.626;23.382;2023-04-01T03:53:16;17.20;;;6.53;;
7767;SDS011;3928;42.626;23.382;2023-04-01T03:55:43;12.23;;;5.23;;
7767;SDS011;3928;42.626;23.382;2023-04-01T03:58:10;9.85;;;5.38;;
7767;SDS011;3928;42.626;23.382;2023-04-01T04:00:37;8.50;;;5.03;;
7767;SDS011;3928;42.626;23.382;2023-04-01T04:03:03;9.40;;;5.83;;
7767;SDS011;3928;42.626;23.382;2023-04-01T04:05:31;9.32;;;5.30;;
7767;SDS011;3928;42.626;23.382;2023-04-01T04:07:58;12.83;;;6.17;;
7767;SDS011;3928;42.626;23.382;2023-04-01T04:10:27;11.67;;;5.30;;
7767;SDS011;3928;42.626;23.382;2023-04-01T04:12:54;9.87;;;5.67;;
7767;SDS011;3928;42.626;23.382;2023-04-01T04:15:21;14.57;;;5.00;;
7767;SDS011;3928;42.626;23.382;2023-04-01T04:17:48;12.60;;;6.23;;
7767;SDS011;3928;42.626;23.382;2023-04-01T04:20:15;10.17;;;6.20;;
7767;SDS011;3928;42.626;23.382;2023-04-01T04:22:42;10.03;;;5.97;;
7767;SDS011;3928;42.626;23.382;2023-04-01T04:25:08;9.40;;;5.50;;
7767;SDS011;3928;42.626;23.382;2023-04-01T04:27:37;13.93;;;5.73;;
7767;SDS011;3928;42.626;23.382;2023-04-01T04:30:05;8.97;;;4.60;;
7767;SDS011;3928;42.626;23.382;2023-04-01T04:32:33;10.07;;;4.70;;
7767;SDS011;3928;42.626;23.382;2023-04-01T04:35:00;10.43;;;4.90;;
7767;SDS011;3928;42.626;23.382;2023-04-01T04:37:27;8.87;;;4.43;;
7767;SDS011;3928;42.626;23.382;2023-04-01T04:39:53;6.47;;;3.77;;
7767;SDS011;3928;42.626;23.382;2023-04-01T04:42:20;10.67;;;3.57;;
7767;SDS011;3928;42.626;23.382;2023-04-01T04:44:48;6.47;;;4.00;;
7767;SDS011;3928;42.626;23.382;2023-04-01T04:47:15;9.37;;;3.60;;
7767;SDS011;3928;42.626;23.382;2023-04-01T04:49:42;6.87;;;3.77;;
7767;SDS011;3928;42.626;23.382;2023-04-01T04:52:09;6.73;;;3.27;;
7767;SDS011;3928;42.626;23.382;2023-04-01T04:54:35;7.40;;;3.47;;
7767;SDS011;3928;42.626;23.382;2023-04-01T04:57:02;11.40;;;3.97;;
7767;SDS011;3928;42.626;23.382;2023-04-01T04:59:30;5.57;;;3.20;;
7767;SDS011;3928;42.626;23.382;2023-04-01T05:01:58;7.93;;;3.00;;
7767;SDS011;3928;42.626;23.382;2023-04-01T05:04:25;5.03;;;3.13;;
7767;SDS011;3928;42.626;23.382;2023-04-01T05:06:52;7.23;;;3.63;;
7767;SDS011;3928;42.626;23.382;2023-04-01T05:09:19;5.43;;;3.40;;
7767;SDS011;3928;42.626;23.382;2023-04-01T05:11:45;10.67;;;3.80;;
7767;SDS011;3928;42.626;23.382;2023-04-01T05:14:13;7.32;;;3.40;;
7767;SDS011;3928;42.626;23.382;2023-04-01T05:16:40;7.93;;;3.67;;
7767;SDS011;3928;42.626;23.382;2023-04-01T05:19:08;8.33;;;4.63;;
7767;SDS011;3928;42.626;23.382;2023-04-01T05:21:35;7.87;;;4.63;;
7767;SDS011;3928;42.626;23.382;2023-04-01T05:24:02;8.80;;;4.35;;
7767;SDS011;3928;42.626;23.382;2023-04-01T05:26:29;8.87;;;4.17;;
7767;SDS011;3928;42.626;23.382;2023-04-01T05:28:57;9.57;;;3.97;;
7767;SDS011;3928;42.626;23.382;2023-04-01T05:31:24;12.23;;;4.97;;
7767;SDS011;3928;42.626;23.382;2023-04-01T05:33:51;7.63;;;4.87;;
7767;SDS011;3928;42.626;23.382;2023-04-01T05:36:20;9.15;;;5.43;;
7767;SDS011;3928;42.626;23.382;2023-04-01T05:38:47;11.15;;;4.95;;
7767;SDS011;3928;42.626;23.382;2023-04-01T05:41:16;10.60;;;5.40;;
7767;SDS011;3928;42.626;23.382;2023-04-01T05:43:43;10.67;;;5.83;;
7767;SDS011;3928;42.626;23.382;2023-04-01T05:46:10;15.18;;;6.25;;
7767;SDS011;3928;42.626;23.382;2023-04-01T05:48:37;16.10;;;5.97;;
7767;SDS011;3928;42.626;23.382;2023-04-01T05:51:04;15.47;;;5.40;;
7767;SDS011;3928;42.626;23.382;2023-04-01T05:53:33;14.90;;;6.37;;
7767;SDS011;3928;42.626;23.382;2023-04-01T05:56:01;14.40;;;5.60;;
7767;SDS011;3928;42.626;23.382;2023-04-01T05:58:29;15.77;;;7.00;;
7767;SDS011;3928;42.626;23.382;2023-04-01T06:01:00;9.75;;;6.05;;
7767;SDS011;3928;42.626;23.382;2023-04-01T06:03:28;9.98;;;5.53;;
7767;SDS011;3928;42.626;23.382;2023-04-01T06:05:55;17.33;;;6.35;;
7767;SDS011;3928;42.626;23.382;2023-04-01T06:08:23;14.07;;;5.70;;
7767;SDS011;3928;42.626;23.382;2023-04-01T06:10:55;10.85;;;5.43;;
7767;SDS011;3928;42.626;23.382;2023-04-01T06:13:42;11.98;;;5.03;;
7767;SDS011;3928;42.626;23.382;2023-04-01T06:16:26;10.20;;;4.78;;
7767;SDS011;3928;42.626;23.382;2023-04-01T06:19:11;10.57;;;5.18;;
7767;SDS011;3928;42.626;23.382;2023-04-01T06:21:53;10.82;;;5.25;;
7767;SDS011;3928;42.626;23.382;2023-04-01T06:24:35;9.48;;;4.93;;
7767;SDS011;3928;42.626;23.382;2023-04-01T06:27:20;12.80;;;5.30;;
7767;SDS011;3928;42.626;23.382;2023-04-01T06:29:58;7.78;;;4.22;;
7767;SDS011;3928;42.626;23.382;2023-04-01T06:32:40;7.32;;;4.63;;
7767;SDS011;3928;42.626;23.382;2023-04-01T06:38:22;10.70;;;5.63;;
7767;SDS011;3928;42.626;23.382;2023-04-01T06:41:15;8.55;;;4.82;;
7767;SDS011;3928;42.626;23.382;2023-04-01T06:44:11;8.70;;;4.65;;
7767;SDS011;3928;42.626;23.382;2023-04-01T06:46:45;11.88;;;5.13;;
7767;SDS011;3928;42.626;23.382;2023-04-01T06:49:21;5.82;;;4.70;;
7767;SDS011;3928;42.626;23.382;2023-04-01T06:51:58;9.30;;;5.07;;
7767;SDS011;3928;42.626;23.382;2023-04-01T06:54:30;11.75;;;5.53;;
7767;SDS011;3928;42.626;23.382;2023-04-01T06:57:01;12.55;;;5.07;;
7767;SDS011;3928;42.626;23.382;2023-04-01T06:59:33;10.00;;;5.78;;
7767;SDS011;3928;42.626;23.382;2023-04-01T07:02:04;7.05;;;4.88;;
7767;SDS011;3928;42.626;23.382;2023-04-01T07:04:43;11.10;;;4.88;;
7767;SDS011;3928;42.626;23.382;2023-04-01T07:07:14;12.00;;;5.03;;
7767;SDS011;3928;42.626;23.382;2023-04-01T07:09:48;9.23;;;5.07;;
7767;SDS011;3928;42.626;23.382;2023-04-01T07:12:19;9.10;;;5.00;;
7767;SDS011;3928;42.626;23.382;2023-04-01T07:14:55;17.10;;;5.88;;
7767;SDS011;3928;42.626;23.382;2023-04-01T07:17:25;12.57;;;5.72;;
7767;SDS011;3928;42.626;23.382;2023-04-01T07:19:57;11.73;;;5.57;;
7767;SDS011;3928;42.626;23.382;2023-04-01T07:22:29;12.73;;;5.40;;
7767;SDS011;3928;42.626;23.382;2023-04-01T07:25:02;9.63;;;5.88;;
7767;SDS011;3928;42.626;23.382;2023-04-01T07:27:31;8.10;;;6.05;;
7767;SDS011;3928;42.626;23.382;2023-04-01T07:30:00;11.75;;;5.55;;
7767;SDS011;3928;42.626;23.382;2023-04-01T07:32:30;10.07;;;5.40;;
7767;SDS011;3928;42.626;23.382;2023-04-01T07:35:09;11.20;;;5.78;;
7767;SDS011;3928;42.626;23.382;2023-04-01T07:37:47;12.18;;;6.20;;
7767;SDS011;3928;42.626;23.382;2023-04-01T07:40:25;10.15;;;6.05;;
7767;SDS011;3928;42.626;23.382;2023-04-01T07:45:54;12.15;;;6.03;;
7767;SDS011;3928;42.626;23.382;2023-04-01T07:48:30;11.48;;;5.82;;
7767;SDS011;3928;42.626;23.382;2023-04-01T07:51:02;12.10;;;6.80;;
7767;SDS011;3928;42.626;23.382;2023-04-01T07:53:35;11.90;;;6.05;;
7767;SDS011;3928;42.626;23.382;2023-04-01T07:56:05;13.30;;;6.00;;
7767;SDS011;3928;42.626;23.382;2023-04-01T07:58:37;9.50;;;5.93;;
7767;SDS011;3928;42.626;23.382;2023-04-01T08:01:16;13.93;;;5.85;;
7767;SDS011;3928;42.626;23.382;2023-04-01T08:04:01;10.93;;;5.63;;
7767;SDS011;3928;42.626;23.382;2023-04-01T08:06:42;9.02;;;5.38;;
7767;SDS011;3928;42.626;23.382;2023-04-01T08:09:17;11.95;;;5.40;;
7767;SDS011;3928;42.626;23.382;2023-04-01T08:11:56;10.73;;;5.65;;
7767;SDS011;3928;42.626;23.382;2023-04-01T08:14:31;9.98;;;6.05;;
7767;SDS011;3928;42.626;23.382;2023-04-01T08:17:04;9.00;;;5.47;;
7767;SDS011;3928;42.626;23.382;2023-04-01T08:19:44;8.77;;;5.72;;
7767;SDS011;3928;42.626;23.382;2023-04-01T08:22:22;13.60;;;6.10;;
7767;SDS011;3928;42.626;23.382;2023-04-01T08:24:54;9.63;;;5.70;;
7767;SDS011;3928;42.626;23.382;2023-04-01T08:27:26;11.93;;;5.82;;
7767;SDS011;3928;42.626;23.382;2023-04-01T08:29:59;7.55;;;5.22;;
7767;SDS011;3928;42.626;23.382;2023-04-01T08:32:32;10.15;;;5.78;;
7767;SDS011;3928;42.626;23.382;2023-04-01T08:35:07;15.63;;;5.07;;
7767;SDS011;3928;42.626;23.382;2023-04-01T08:37:36;9.20;;;5.22;;
7767;SDS011;3928;42.626;23.382;2023-04-01T08:40:13;8.45;;;4.82;;
7767;SDS011;3928;42.626;23.382;2023-04-01T08:42:54;11.35;;;5.70;;
7767;SDS011;3928;42.626;23.382;2023-04-01T08:48:47;10.82;;;5.28;;
7767;SDS011;3928;42.626;23.382;2023-04-01T08:51:45;9.93;;;5.25;;
7767;SDS011;3928;42.626;23.382;2023-04-01T08:54:38;13.90;;;5.40;;
7767;SDS011;3928;42.626;23.382;2023-04-01T08:57:13;16.58;;;6.43;;
7767;SDS011;3928;42.626;23.382;2023-04-01T08:59:48;12.57;;;6.07;;
7767;SDS011;3928;42.626;23.382;2023-04-01T09:02:25;10.38;;;5.18;;
7767;SDS011;3928;42.626;23.382;2023-04-01T09:05:28;14.07;;;6.30;;
7767;SDS011;3928;42.626;23.382;2023-04-01T09:08:08;15.02;;;6.45;;
7767;SDS011;3928;42.626;23.382;2023-04-01T09:10:49;16.85;;;6.35;;
7767;SDS011;3928;42.626;23.382;2023-04-01T09:13:52;13.20;;;4.68;;
7767;SDS011;3928;42.626;23.382;2023-04-01T09:19:48;8.38;;;4.13;;
7767;SDS011;3928;42.626;23.382;2023-04-01T09:22:34;9.73;;;4.15;;
7767;SDS011;3928;42.626;23.382;2023-04-01T09:28:13;11.80;;;5.07;;
7767;SDS011;3928;42.626;23.382;2023-04-01T09:30:48;14.95;;;5.50;;
7767;SDS011;3928;42.626;23.382;2023-04-01T09:36:38;11.27;;;4.32;;
7767;SDS011;3928;42.626;23.382;2023-04-01T09:39:26;10.23;;;4.50;;
7767;SDS011;3928;42.626;23.382;2023-04-01T09:42:07;20.00;;;4.88;;
7767;SDS011;3928;42.626;23.382;2023-04-01T09:44:48;8.88;;;5.10;;
7767;SDS011;3928;42.626;23.382;2023-04-01T09:47:28;13.73;;;4.78;;
7767;SDS011;3928;42.626;23.382;2023-04-01T09:50:18;7.28;;;4.20;;
7767;SDS011;3928;42.626;23.382;2023-04-01T09:52:57;7.57;;;4.07;;
7767;SDS011;3928;42.626;23.382;2023-04-01T09:58:55;10.25;;;4.70;;
7767;SDS011;3928;42.626;23.382;2023-04-01T10:01:44;9.07;;;4.45;;
7767;SDS011;3928;42.626;23.382;2023-04-01T10:04:35;11.40;;;4.68;;
7767;SDS011;3928;42.626;23.382;2023-04-01T10:07:47;11.00;;;5.20;;
7767;SDS011;3928;42.626;23.382;2023-04-01T10:13:38;7.88;;;4.55;;
7767;SDS011;3928;42.626;23.382;2023-04-01T10:19:45;8.40;;;4.05;;
7767;SDS011;3928;42.626;23.382;2023-04-01T10:22:35;13.73;;;4.78;;
7767;SDS011;3928;42.626;23.382;2023-04-01T10:25:28;8.60;;;4.22;;
7767;SDS011;3928;42.626;23.382;2023-04-01T10:28:22;8.98;;;4.45;;
7767;SDS011;3928;42.626;23.382;2023-04-01T10:36:52;9.68;;;4.60;;
7767;SDS011;3928;42.626;23.382;2023-04-01T10:39:34;13.13;;;4.20;;
7767;SDS011;3928;42.626;23.382;2023-04-01T10:42:11;8.10;;;4.53;;
7767;SDS011;3928;42.626;23.382;2023-04-01T10:48:19;7.53;;;4.22;;
7767;SDS011;3928;42.626;23.382;2023-04-01T10:51:01;11.57;;;4.40;;
7767;SDS011;3928;42.626;23.382;2023-04-01T10:53:40;7.93;;;3.90;;
7767;SDS011;3928;42.626;23.382;2023-04-01T10:56:25;11.60;;;4.32;;
7767;SDS011;3928;42.626;23.382;2023-04-01T11:08:18;8.25;;;4.13;;
7767;SDS011;3928;42.626;23.382;2023-04-01T11:11:25;10.73;;;4.78;;
7767;SDS011;3928;42.626;23.382;2023-04-01T11:17:24;8.80;;;4.90;;
7767;SDS011;3928;42.626;23.382;2023-04-01T11:20:13;9.27;;;4.35;;
7767;SDS011;3928;42.626;23.382;2023-04-01T11:22:58;17.73;;;5.07;;
7767;SDS011;3928;42.626;23.382;2023-04-01T11:25:55;26.38;;;4.85;;
7767;SDS011;3928;42.626;23.382;2023-04-01T11:28:40;3.92;;;2.17;;
7767;SDS011;3928;42.626;23.382;2023-04-01T11:31:24;8.20;;;3.13;;
7767;SDS011;3928;42.626;23.382;2023-04-01T11:34:01;5.07;;;2.33;;
7767;SDS011;3928;42.626;23.382;2023-04-01T11:36:37;8.18;;;3.78;;
7767;SDS011;3928;42.626;23.382;2023-04-01T11:39:18;6.15;;;2.67;;
7767;SDS011;3928;42.626;23.382;2023-04-01T11:41:55;9.65;;;2.80;;
7767;SDS011;3928;42.626;23.382;2023-04-01T11:44:28;6.25;;;3.63;;
7767;SDS011;3928;42.626;23.382;2023-04-01T11:47:00;6.03;;;2.75;;
7767;SDS011;3928;42.626;23.382;2023-04-01T11:49:44;8.85;;;2.30;;
7767;SDS011;3928;42.626;23.382;2023-04-01T11:52:30;5.25;;;2.97;;
7767;SDS011;3928;42.626;23.382;2023-04-01T11:58:12;7.32;;;3.13;;
7767;SDS011;3928;42.626;23.382;2023-04-01T12:04:06;6.32;;;3.03;;
7767;SDS011;3928;42.626;23.382;2023-04-01T12:07:03;5.27;;;3.00;;
7767;SDS011;3928;42.626;23.382;2023-04-01T12:09:41;10.50;;;3.50;;
7767;SDS011;3928;42.626;23.382;2023-04-01T12:12:22;5.70;;;3.33;;
7767;SDS011;3928;42.626;23.382;2023-04-01T12:15:00;8.63;;;3.20;;
7767;SDS011;3928;42.626;23.382;2023-04-01T12:17:40;7.17;;;3.33;;
7767;SDS011;3928;42.626;23.382;2023-04-01T12:23:09;5.25;;;3.55;;
7767;SDS011;3928;42.626;23.382;2023-04-01T12:26:00;7.15;;;3.70;;
7767;SDS011;3928;42.626;23.382;2023-04-01T12:28:45;5.50;;;3.63;;
7767;SDS011;3928;42.626;23.382;2023-04-01T12:31:33;7.95;;;3.13;;
7767;SDS011;3928;42.626;23.382;2023-04-01T12:37:06;8.30;;;3.00;;
7767;SDS011;3928;42.626;23.382;2023-04-01T12:39:47;7.40;;;3.35;;
7767;SDS011;3928;42.626;23.382;2023-04-01T12:42:30;8.27;;;3.20;;
7767;SDS011;3928;42.626;23.382;2023-04-01T12:45:23;3.95;;;2.38;;
7767;SDS011;3928;42.626;23.382;2023-04-01T12:51:05;8.18;;;2.92;;
7767;SDS011;3928;42.626;23.382;2023-04-01T12:54:02;4.13;;;3.00;;
7767;SDS011;3928;42.626;23.382;2023-04-01T12:57:05;7.10;;;3.80;;
7767;SDS011;3928;42.626;23.382;2023-04-01T12:59:48;8.18;;;4.10;;
7767;SDS011;3928;42.626;23.382;2023-04-01T13:02:30;7.82;;;3.42;;
7767;SDS011;3928;42.626;23.382;2023-04-01T13:05:22;6.88;;;3.92;;
7767;SDS011;3928;42.626;23.382;2023-04-01T13:08:14;7.93;;;3.53;;
7767;SDS011;3928;42.626;23.382;2023-04-01T13:10:58;5.20;;;4.00;;
7767;SDS011;3928;42.626;23.382;2023-04-01T13:13:43;8.75;;;3.90;;
7767;SDS011;3928;42.626;23.382;2023-04-01T13:16:29;10.73;;;3.67;;
7767;SDS011;3928;42.626;23.382;2023-04-01T13:19:02;6.03;;;3.80;;
7767;SDS011;3928;42.626;23.382;2023-04-01T13:21:38;5.78;;;3.53;;
7767;SDS011;3928;42.626;23.382;2023-04-01T13:24:18;7.63;;;3.65;;
7767;SDS011;3928;42.626;23.382;2023-04-01T13:26:54;9.05;;;3.85;;
7767;SDS011;3928;42.626;23.382;2023-04-01T13:29:27;4.40;;;3.40;;
7767;SDS011;3928;42.626;23.382;2023-04-01T13:32:06;5.78;;;3.47;;
7767;SDS011;3928;42.626;23.382;2023-04-01T13:34:47;6.10;;;3.00;;
7767;SDS011;3928;42.626;23.382;2023-04-01T13:37:32;6.32;;;3.25;;
7767;SDS011;3928;42.626;23.382;2023-04-01T13:40:17;3.78;;;2.58;;
7767;SDS011;3928;42.626;23.382;2023-04-01T13:43:02;2.13;;;1.60;;
7767;SDS011;3928;42.626;23.382;2023-04-01T13:45:38;2.30;;;1.50;;
7767;SDS011;3928;42.626;23.382;2023-04-01T13:51:13;3.97;;;1.88;;
7767;SDS011;3928;42.626;23.382;2023-04-01T13:54:13;5.75;;;1.67;;
7767;SDS011;3928;42.626;23.382;2023-04-01T13:57:03;2.58;;;1.42;;
7767;SDS011;3928;42.626;23.382;2023-04-01T13:59:58;3.28;;;1.67;;
7767;SDS011;3928;42.626;23.382;2023-04-01T14:05:47;6.63;;;1.83;;
7767;SDS011;3928;42.626;23.382;2023-04-01T14:08:33;3.95;;;2.00;;
7767;SDS011;3928;42.626;23.382;2023-04-01T14:11:17;9.25;;;3.42;;
7767;SDS011;3928;42.626;23.382;2023-04-01T14:13:56;6.75;;;3.47;;
7767;SDS011;3928;42.626;23.382;2023-04-01T14:16:47;4.25;;;3.28;;
7767;SDS011;3928;42.626;23.382;2023-04-01T14:19:47;5.47;;;3.40;;
7767;SDS011;3928;42.626;23.382;2023-04-01T14:22:29;6.78;;;3.60;;
7767;SDS011;3928;42.626;23.382;2023-04-01T14:25:12;7.80;;;3.67;;
7767;SDS011;3928;42.626;23.382;2023-04-01T14:27:55;9.23;;;6.47;;
7767;SDS011;3928;42.626;23.382;2023-04-01T14:33:30;6.50;;;4.20;;
7767;SDS011;3928;42.626;23.382;2023-04-01T14:36:10;8.02;;;3.40;;
7767;SDS011;3928;42.626;23.382;2023-04-01T14:39:00;5.28;;;3.03;;
7767;SDS011;3928;42.626;23.382;2023-04-01T14:41:46;5.65;;;3.17;;
7767;SDS011;3928;42.626;23.382;2023-04-01T14:44:21;9.48;;;3.45;;
7767;SDS011;3928;42.626;23.382;2023-04-01T14:47:04;5.70;;;3.03;;
7767;SDS011;3928;42.626;23.382;2023-04-01T14:49:50;3.75;;;3.35;;
7767;SDS011;3928;42.626;23.382;2023-04-01T14:52:23;5.18;;;3.38;;
7767;SDS011;3928;42.626;23.382;2023-04-01T14:54:53;5.68;;;3.53;;
7767;SDS011;3928;42.626;23.382;2023-04-01T14:57:23;5.57;;;3.45;;
7767;SDS011;3928;42.626;23.382;2023-04-01T14:59:53;6.28;;;3.75;;
7767;SDS011;3928;42.626;23.382;2023-04-01T15:05:22;3.97;;;3.05;;
7767;SDS011;3928;42.626;23.382;2023-04-01T15:08:11;5.20;;;3.33;;
7767;SDS011;3928;42.626;23.382;2023-04-01T15:13:51;5.32;;;3.13;;
7767;SDS011;3928;42.626;23.382;2023-04-01T15:16:30;6.13;;;3.42;;
7767;SDS011;3928;42.626;23.382;2023-04-01T15:19:10;4.55;;;3.17;;
7767;SDS011;3928;42.626;23.382;2023-04-01T15:21:57;7.20;;;3.40;;
7767;SDS011;3928;42.626;23.382;2023-04-01T15:24:41;6.15;;;2.97;;
7767;SDS011;3928;42.626;23.382;2023-04-01T15:27:21;7.35;;;3.53;;
7767;SDS011;3928;42.626;23.382;2023-04-01T15:30:05;5.05;;;3.10;;
7767;SDS011;3928;42.626;23.382;2023-04-01T15:32:48;5.78;;;3.42;;
7767;SDS011;3928;42.626;23.382;2023-04-01T15:35:32;6.82;;;3.45;;
7767;SDS011;3928;42.626;23.382;2023-04-01T15:38:06;6.47;;;3.70;;
7767;SDS011;3928;42.626;23.382;2023-04-01T15:40:42;6.50;;;3.20;;
7767;SDS011;3928;42.626;23.382;2023-04-01T15:43:16;5.50;;;3.40;;
7767;SDS011;3928;42.626;23.382;2023-04-01T15:45:52;5.75;;;3.45;;
7767;SDS011;3928;42.626;23.382;2023-04-01T15:48:35;7.00;;;3.50;;
7767;SDS011;3928;42.626;23.382;2023-04-01T15:51:16;4.70;;;3.72;;
7767;SDS011;3928;42.626;23.382;2023-04-01T15:56:51;6.72;;;4.15;;
7767;SDS011;3928;42.626;23.382;2023-04-01T15:59:35;3.22;;;1.85;;
7767;SDS011;3928;42.626;23.382;2023-04-01T16:02:20;1.92;;;1.77;;
7767;SDS011;3928;42.626;23.382;2023-04-01T16:04:56;5.07;;;2.10;;
7767;SDS011;3928;42.626;23.382;2023-04-01T16:07:40;2.30;;;1.90;;
7767;SDS011;3928;42.626;23.382;2023-04-01T16:10:19;6.70;;;3.53;;
7767;SDS011;3928;42.626;23.382;2023-04-01T16:13:00;5.60;;;2.83;;
7767;SDS011;3928;42.626;23.382;2023-04-01T16:15:39;3.77;;;2.17;;
7767;SDS011;3928;42.626;23.382;2023-04-01T16:18:21;2.40;;;2.20;;
7767;SDS011;3928;42.626;23.382;2023-04-01T16:21:10;2.90;;;2.43;;
7767;SDS011;3928;42.626;23.382;2023-04-01T16:23:42;2.70;;;2.50;;
7767;SDS011;3928;42.626;23.382;2023-04-01T16:26:17;2.97;;;2.67;;
7767;SDS011;3928;42.626;23.382;2023-04-01T16:28:53;3.43;;;2.43;;
7767;SDS011;3928;42.626;23.382;2023-04-01T16:31:29;2.40;;;2.20;;
7767;SDS011;3928;42.626;23.382;2023-04-01T16:34:03;2.50;;;2.30;;
7767;SDS011;3928;42.626;23.382;2023-04-01T16:36:40;4.60;;;2.50;;
7767;SDS011;3928;42.626;23.382;2023-04-01T16:39:16;3.30;;;2.57;;
7767;SDS011;3928;42.626;23.382;2023-04-01T16:41:54;3.80;;;2.43;;
7767;SDS011;3928;42.626;23.382;2023-04-01T16:44:48;2.27;;;2.07;;
7767;SDS011;3928;42.626;23.382;2023-04-01T16:47:20;2.20;;;2.00;;
7767;SDS011;3928;42.626;23.382;2023-04-01T16:49:54;2.50;;;2.30;;
7767;SDS011;3928;42.626;23.382;2023-04-01T16:52:46;2.70;;;2.30;;
7767;SDS011;3928;42.626;23.382;2023-04-01T16:55:25;3.20;;;2.77;;
7767;SDS011;3928;42.626;23.382;2023-04-01T16:58:01;2.50;;;2.30;;
7767;SDS011;3928;42.626;23.382;2023-04-01T17:00:29;2.17;;;2.07;;
7767;SDS011;3928;42.626;23.382;2023-04-01T17:03:04;2.70;;;2.17;;
7767;SDS011;3928;42.626;23.382;2023-04-01T17:05:45;3.00;;;2.50;;
7767;SDS011;3928;42.626;23.382;2023-04-01T17:08:27;2.20;;;2.10;;
7767;SDS011;3928;42.626;23.382;2023-04-01T17:11:06;2.57;;;2.10;;